Time;durP1;ratioP1;P1;durP2;ratioP2;P2;SDS_P1;SDS_P2;PMS_P1;PMS_P2;Temp;Humidity;BMP_temperature;BMP_pressure;BME280_temperature;BME280_humidity;BME280_pressure;Samples;Min_cycle;Max_cycle;Signal;HPM_P1;HPM_P2
2023/12/10 00:01:56;;;;;;;34.60;19.40;;;;;;;0.08;100.00;101094.31;106848;1251;61036;-75
2023/12/10 00:04:25;;;;;;;34.60;18.30;;;;;;;0.10;100.00;101095.34;108033;1251;60516;-77
2023/12/10 00:06:56;;;;;;;34.00;18.00;;;;;;;0.10;100.00;101098.42;105926;1253;73638;-79
2023/12/10 00:09:23;;;;;;;32.60;18.00;;;;;;;0.08;100.00;101099.98;106027;1253;64369;-78
2023/12/10 00:11:50;;;;;;;29.50;18.20;;;;;;;0.09;100.00;101102.91;106072;1251;72651;-78
2023/12/10 00:14:18;;;;;;;38.00;19.70;;;;;;;0.11;100.00;101099.27;105990;1253;60526;-78
2023/12/10 00:16:45;;;;;;;35.80;19.00;;;;;;;0.11;100.00;101098.08;106055;1253;60418;-79
2023/12/10 00:19:13;;;;;;;35.00;18.80;;;;;;;0.10;100.00;101092.41;106020;1250;73525;-79
2023/12/10 00:21:40;;;;;;;33.40;20.60;;;;;;;0.08;100.00;101087.95;106058;1253;63619;-80
2023/12/10 00:24:07;;;;;;;39.80;21.40;;;;;;;0.07;100.00;101087.11;106011;1250;72572;-81
2023/12/10 00:26:34;;;;;;;36.10;19.20;;;;;;;0.06;100.00;101087.63;106069;1253;61700;-77
2023/12/10 00:29:01;;;;;;;35.60;19.90;;;;;;;0.07;100.00;101090.04;106083;1250;60794;-79
2023/12/10 00:31:29;;;;;;;39.60;21.80;;;;;;;0.09;100.00;101085.73;106093;1251;73829;-76
2023/12/10 00:33:56;;;;;;;36.30;19.50;;;;;;;0.11;100.00;101082.44;106561;1253;63685;-78
2023/12/10 00:36:23;;;;;;;29.60;18.00;;;;;;;0.11;100.00;101080.38;106709;1251;71080;-78
2023/12/10 00:38:51;;;;;;;32.00;19.50;;;;;;;0.10;100.00;101080.20;106355;1250;61049;-77
2023/12/10 00:41:18;;;;;;;33.40;18.40;;;;;;;0.08;100.00;101080.74;106303;1251;60561;-76
2023/12/10 00:43:45;;;;;;;28.80;17.30;;;;;;;0.08;100.00;101083.33;105946;1253;73807;-80
2023/12/10 00:46:13;;;;;;;30.10;19.50;;;;;;;0.10;100.00;101080.39;105962;1249;62431;-77
2023/12/10 00:48:40;;;;;;;31.80;16.30;;;;;;;0.12;100.00;101081.73;106006;1253;72395;-80
2023/12/10 00:51:07;;;;;;;29.30;16.60;;;;;;;0.15;100.00;101079.64;105873;1255;61359;-78
2023/12/10 00:53:34;;;;;;;29.20;16.50;;;;;;;0.17;100.00;101076.18;106082;1250;60407;-80
2023/12/10 00:56:02;;;;;;;26.70;15.70;;;;;;;0.20;100.00;101082.00;106137;1251;74655;-79
2023/12/10 00:58:30;;;;;;;26.10;16.50;;;;;;;0.18;100.00;101078.08;106037;1253;63851;-79
2023/12/10 01:00:57;;;;;;;33.20;16.90;;;;;;;0.16;100.00;101075.68;106073;1251;72500;-78
2023/12/10 01:03:24;;;;;;;29.00;16.60;;;;;;;0.14;100.00;101078.95;105969;1253;61259;-78
2023/12/10 01:05:51;;;;;;;25.60;17.00;;;;;;;0.13;100.00;101079.84;106037;1251;60485;-79
2023/12/10 01:08:18;;;;;;;30.50;17.10;;;;;;;0.11;100.00;101082.09;106025;1251;72341;-78
2023/12/10 01:10:46;;;;;;;26.80;16.30;;;;;;;0.11;100.00;101080.89;106106;1253;63908;-77
2023/12/10 01:13:14;;;;;;;30.90;15.90;;;;;;;0.11;100.00;101084.67;106022;1253;72654;-79
2023/12/10 01:15:41;;;;;;;25.70;16.30;;;;;;;0.10;100.00;101084.17;106057;1253;60437;-78
2023/12/10 01:18:08;;;;;;;28.10;15.80;;;;;;;0.10;100.00;101085.02;105978;1253;60635;-78
2023/12/10 01:20:37;;;;;;;26.50;16.30;;;;;;;0.09;100.00;101080.04;106062;1253;73912;-78
2023/12/10 01:23:04;;;;;;;23.30;15.30;;;;;;;0.11;100.00;101081.92;106230;1253;62662;-76
2023/12/10 01:25:32;;;;;;;24.60;15.10;;;;;;;0.12;100.00;101076.40;106397;1251;71407;-78
2023/12/10 01:28:00;;;;;;;27.90;15.40;;;;;;;0.14;100.00;101078.27;106007;1253;60881;-78
2023/12/10 01:30:27;;;;;;;25.20;15.40;;;;;;;0.19;100.00;101073.42;106124;1253;60411;-79
2023/12/10 01:32:57;;;;;;;24.80;15.20;;;;;;;0.23;100.00;101068.56;106049;1253;73862;-77
2023/12/10 01:35:25;;;;;;;25.20;16.00;;;;;;;0.26;100.00;101063.20;105881;1251;61338;-79
2023/12/10 01:37:53;;;;;;;26.70;16.70;;;;;;;0.27;100.00;101062.49;106142;1253;72466;-77
2023/12/10 01:40:20;;;;;;;28.70;15.40;;;;;;;0.29;100.00;101062.99;105996;1253;60488;-78
2023/12/10 01:42:47;;;;;;;26.90;15.10;;;;;;;0.30;100.00;101063.33;106078;1251;60509;-77
2023/12/10 01:45:15;;;;;;;30.70;16.00;;;;;;;0.28;100.00;101062.49;106065;1254;73620;-79
2023/12/10 01:47:43;;;;;;;28.80;15.10;;;;;;;0.25;100.00;101062.35;105988;1256;63633;-75
2023/12/10 01:50:13;;;;;;;27.20;15.80;;;;;;;0.19;100.00;101060.70;105963;1253;72558;-76
2023/12/10 01:52:40;;;;;;;28.30;15.70;;;;;;;0.17;100.00;101054.87;105844;1257;61018;-77
2023/12/10 01:55:09;;;;;;;29.40;16.80;;;;;;;0.19;100.00;101058.64;106144;1251;60309;-78
2023/12/10 01:57:37;;;;;;;32.40;17.00;;;;;;;0.20;100.00;101058.62;106177;1251;73025;-78
2023/12/10 02:00:06;;;;;;;24.70;14.20;;;;;;;0.22;100.00;101059.98;106072;1251;62489;-77
2023/12/10 02:02:38;;;;;;;30.30;15.60;;;;;;;0.21;100.00;101057.24;106053;1253;71597;-79
2023/12/10 02:05:07;;;;;;;31.80;16.70;;;;;;;0.19;100.00;101058.80;106067;1252;60441;-78
2023/12/10 02:07:35;;;;;;;26.30;16.00;;;;;;;0.21;100.00;101055.34;106124;1251;60437;-78
2023/12/10 02:10:05;;;;;;;27.70;14.90;;;;;;;0.25;100.00;101055.14;106147;1253;72849;-76
2023/12/10 02:12:35;;;;;;;31.20;18.70;;;;;;;0.26;100.00;101054.44;106565;1253;63925;-76
2023/12/10 02:15:15;;;;;;;29.20;16.90;;;;;;;0.26;100.00;101050.65;106047;1251;71661;-77
2023/12/10 02:17:44;;;;;;;27.70;16.80;;;;;;;0.29;100.00;101053.73;106055;1254;61195;-76
2023/12/10 02:20:14;;;;;;;27.50;17.20;;;;;;;0.30;100.00;101055.93;106063;1253;60437;-80
2023/12/10 02:23:07;;;;;;;28.20;17.40;;;;;;;0.32;100.00;101055.39;106203;1251;73904;-77
2023/12/10 02:25:35;;;;;;;38.30;17.20;;;;;;;0.36;100.00;101060.51;106264;1253;62643;-78
2023/12/10 02:28:03;;;;;;;30.40;17.20;;;;;;;0.37;100.00;101052.94;106021;1253;72646;-77
2023/12/10 02:30:30;;;;;;;37.90;17.60;;;;;;;0.37;100.00;101060.50;106028;1253;61100;-77
2023/12/10 02:32:57;;;;;;;35.00;16.40;;;;;;;0.37;100.00;101059.14;106082;1253;60315;-78
2023/12/10 02:35:26;;;;;;;37.60;18.60;;;;;;;0.36;100.00;101058.11;106045;1251;72923;-78
2023/12/10 02:37:53;;;;;;;38.90;17.80;;;;;;;0.34;100.00;101056.23;106207;1253;63987;-79
2023/12/10 02:40:21;;;;;;;39.20;19.10;;;;;;;0.31;100.00;101054.04;109348;1249;71306;-76
2023/12/10 02:42:48;;;;;;;44.20;19.40;;;;;;;0.33;100.00;101056.23;108345;1253;60411;-79
2023/12/10 02:45:15;;;;;;;40.10;21.00;;;;;;;0.35;100.00;101056.90;106008;1250;60323;-78
2023/12/10 02:47:42;;;;;;;45.40;20.50;;;;;;;0.38;100.00;101062.89;106003;1253;73778;-77
2023/12/10 02:50:09;;;;;;;41.20;19.00;;;;;;;0.39;100.00;101063.56;106017;1251;62543;-77
2023/12/10 02:52:36;;;;;;;40.10;17.40;;;;;;;0.38;100.00;101065.32;106050;1253;72614;-77
2023/12/10 02:55:04;;;;;;;39.20;20.10;;;;;;;0.37;100.00;101064.46;106046;1253;60438;-77
2023/12/10 02:57:31;;;;;;;35.00;18.20;;;;;;;0.38;100.00;101069.26;106181;1251;60508;-78
2023/12/10 02:59:59;;;;;;;32.40;17.80;;;;;;;0.40;100.00;101068.20;106492;1256;73588;-77
2023/12/10 03:02:25;;;;;;;35.00;19.20;;;;;;;0.43;100.00;101068.71;106263;1255;63647;-79
2023/12/10 03:04:53;;;;;;;34.10;17.20;;;;;;;0.40;100.00;101065.80;105984;1253;73099;-77
2023/12/10 03:07:20;;;;;;;33.70;20.20;;;;;;;0.37;100.00;101068.94;105942;1253;60982;-77
2023/12/10 03:09:47;;;;;;;34.70;18.70;;;;;;;0.38;100.00;101069.27;106028;1251;60435;-78
2023/12/10 03:12:15;;;;;;;38.80;19.00;;;;;;;0.37;100.00;101065.14;106101;1253;73887;-79
2023/12/10 03:14:43;;;;;;;36.10;20.30;;;;;;;0.36;100.00;101065.33;106054;1253;63858;-77
2023/12/10 03:17:10;;;;;;;27.70;15.60;;;;;;;0.37;100.00;101069.45;106002;1253;72652;-77
2023/12/10 03:19:38;;;;;;;33.90;18.10;;;;;;;0.38;100.00;101070.64;105924;1253;60982;-76
2023/12/10 03:22:05;;;;;;;40.30;18.90;;;;;;;0.40;100.00;101068.38;105993;1250;60450;-78
2023/12/10 03:24:32;;;;;;;31.40;18.30;;;;;;;0.42;100.00;101067.15;106066;1250;72503;-78
2023/12/10 03:26:59;;;;;;;34.20;18.80;;;;;;;0.43;100.00;101067.84;106049;1253;63680;-79
2023/12/10 03:29:26;;;;;;;29.70;16.80;;;;;;;0.45;100.00;101063.17;106067;1252;71158;-79
2023/12/10 03:31:54;;;;;;;38.70;19.20;;;;;;;0.47;100.00;101061.95;105920;1251;60511;-78
2023/12/10 03:34:21;;;;;;;26.60;16.80;;;;;;;0.49;100.00;101063.11;105973;1253;60750;-79
2023/12/10 03:36:48;;;;;;;33.70;18.50;;;;;;;0.52;100.00;101064.81;106014;1251;72886;-78
2023/12/10 03:39:15;;;;;;;29.10;16.80;;;;;;;0.52;100.00;101065.15;106016;1253;63852;-78
2023/12/10 03:41:43;;;;;;;27.90;15.10;;;;;;;0.53;100.00;101067.90;105766;1256;72590;-78
2023/12/10 03:44:09;;;;;;;31.90;17.80;;;;;;;0.51;100.00;101068.95;106012;1253;61000;-77
2023/12/10 03:46:37;;;;;;;29.90;17.60;;;;;;;0.49;100.00;101068.46;106001;1251;60456;-77
2023/12/10 03:49:03;;;;;;;31.30;17.90;;;;;;;0.49;100.00;101068.63;106650;1250;74148;-75
2023/12/10 03:51:31;;;;;;;32.70;16.90;;;;;;;0.50;100.00;101075.67;106192;1253;63928;-79
2023/12/10 03:54:00;;;;;;;25.80;16.40;;;;;;;0.49;100.00;101075.00;106238;1251;72664;-78
2023/12/10 03:56:28;;;;;;;34.80;19.50;;;;;;;0.46;100.00;101075.20;106011;1253;61288;-77
2023/12/10 03:58:55;;;;;;;38.40;18.80;;;;;;;0.42;100.00;101074.21;106002;1251;60351;-77
2023/12/10 04:01:22;;;;;;;40.20;20.80;;;;;;;0.40;100.00;101075.43;106082;1251;73864;-77
2023/12/10 04:03:49;;;;;;;32.90;19.00;;;;;;;0.40;100.00;101078.36;105995;1256;63735;-77
2023/12/10 04:06:17;;;;;;;30.70;18.00;;;;;;;0.43;100.00;101077.12;106139;1251;72700;-77
2023/12/10 04:08:44;;;;;;;37.30;19.80;;;;;;;0.42;100.00;101077.65;105980;1253;60811;-77
2023/12/10 04:11:11;;;;;;;31.80;17.70;;;;;;;0.39;100.00;101075.61;106081;1253;60542;-77
2023/12/10 04:13:38;;;;;;;28.60;17.70;;;;;;;0.40;100.00;101075.44;106066;1253;73607;-77
2023/12/10 04:16:06;;;;;;;32.80;18.80;;;;;;;0.39;100.00;101080.95;105958;1253;63667;-78
2023/12/10 04:18:35;;;;;;;33.50;17.60;;;;;;;0.43;100.00;101082.45;106089;1252;72492;-77
2023/12/10 04:21:03;;;;;;;35.80;19.60;;;;;;;0.42;100.00;101088.47;105951;1255;60411;-77
2023/12/10 04:23:30;;;;;;;34.50;17.80;;;;;;;0.40;100.00;101085.93;105907;1250;60637;-78
2023/12/10 04:25:57;;;;;;;33.60;18.40;;;;;;;0.39;100.00;101088.35;106038;1250;72443;-77
2023/12/10 04:28:24;;;;;;;30.60;19.10;;;;;;;0.41;100.00;101091.42;106097;1253;63883;-77
2023/12/10 04:30:50;;;;;;;36.50;18.50;;;;;;;0.46;100.00;101088.95;106011;1251;71661;-76
2023/12/10 04:33:18;;;;;;;35.10;19.10;;;;;;;0.50;100.00;101094.59;106077;1253;61087;-76
2023/12/10 04:35:45;;;;;;;30.20;18.90;;;;;;;0.52;100.00;101098.52;106266;1251;60488;-75
2023/12/10 04:38:12;;;;;;;38.60;19.70;;;;;;;0.53;100.00;101098.85;106381;1254;72823;-77
2023/12/10 04:40:42;;;;;;;31.30;17.90;;;;;;;0.52;100.00;101097.33;106018;1253;63991;-77
2023/12/10 04:43:09;;;;;;;32.60;17.30;;;;;;;0.49;100.00;101097.52;106050;1253;71552;-78
2023/12/10 04:45:36;;;;;;;31.90;18.30;;;;;;;0.47;100.00;101103.40;105906;1254;61028;-76
2023/12/10 04:48:03;;;;;;;34.40;18.20;;;;;;;0.47;100.00;101104.59;105962;1251;60523;-75
2023/12/10 04:50:31;;;;;;;37.40;19.60;;;;;;;0.46;100.00;101106.67;106028;1252;73856;-77
2023/12/10 04:52:57;;;;;;;30.90;17.70;;;;;;;0.46;100.00;101103.92;106025;1254;63944;-76
2023/12/10 04:55:25;;;;;;;29.50;17.80;;;;;;;0.43;100.00;101105.16;106066;1253;71214;-77
2023/12/10 04:57:52;;;;;;;36.40;18.00;;;;;;;0.39;100.00;101103.30;105974;1251;60908;-77
2023/12/10 05:00:19;;;;;;;37.70;18.40;;;;;;;0.37;100.00;101105.39;105984;1251;60546;-76
2023/12/10 05:02:46;;;;;;;35.70;18.20;;;;;;;0.32;100.00;101104.41;106011;1253;73788;-77
2023/12/10 05:05:14;;;;;;;33.30;18.90;;;;;;;0.30;100.00;101103.56;106113;1250;64791;-75
2023/12/10 05:07:41;;;;;;;34.60;19.70;;;;;;;0.28;100.00;101102.39;106343;1251;72604;-75
2023/12/10 05:10:08;;;;;;;27.60;17.30;;;;;;;0.28;100.00;101106.16;106141;1251;61023;-74
2023/12/10 05:12:35;;;;;;;36.40;19.20;;;;;;;0.31;100.00;101110.10;106104;1251;60453;-74
2023/12/10 05:15:03;;;;;;;33.10;19.30;;;;;;;0.31;100.00;101113.71;106132;1251;73781;-76
2023/12/10 05:17:31;;;;;;;32.40;17.90;;;;;;;0.28;100.00;101118.37;106111;1251;63816;-75
2023/12/10 05:19:58;;;;;;;31.30;16.90;;;;;;;0.23;100.00;101123.25;106006;1251;72664;-76
2023/12/10 05:22:25;;;;;;;27.00;17.50;;;;;;;0.18;100.00;101131.20;106095;1253;60869;-75
2023/12/10 05:24:54;;;;;;;36.40;18.20;;;;;;;0.16;100.00;101137.58;106059;1251;60446;-76
2023/12/10 05:27:21;;;;;;;36.20;18.90;;;;;;;0.16;100.00;101135.16;106242;1251;73901;-75
2023/12/10 05:29:49;;;;;;;33.20;19.70;;;;;;;0.15;100.00;101136.72;107934;1251;62400;-75
2023/12/10 05:32:16;;;;;;;32.90;18.50;;;;;;;0.19;100.00;101142.70;106200;1251;72773;-76
2023/12/10 05:34:43;;;;;;;29.60;19.00;;;;;;;0.24;100.00;101143.35;109423;1251;60389;-76
2023/12/10 05:37:14;;;;;;;30.70;19.40;;;;;;;0.27;100.00;101145.90;108363;1251;252836;-75
2023/12/10 05:41:04;;;;;;;36.40;20.40;;;;;;;0.32;100.00;101148.77;102620;1293;617035;-77
2023/12/10 05:43:32;;;;;;;32.70;19.00;;;;;;;0.32;100.00;101156.00;105041;1270;61015;-77
2023/12/10 05:46:01;;;;;;;34.90;19.10;;;;;;;0.33;100.00;101159.60;105421;1262;60111;-75
2023/12/10 05:48:28;;;;;;;38.10;19.80;;;;;;;0.32;100.00;101164.24;105797;1257;72116;-77
2023/12/10 05:50:56;;;;;;;33.30;19.90;;;;;;;0.30;100.00;101163.76;105813;1256;63948;-77
2023/12/10 05:53:23;;;;;;;39.90;20.30;;;;;;;0.28;100.00;101167.39;105527;1259;196904;-76
2023/12/10 05:55:50;;;;;;;40.10;20.80;;;;;;;0.30;100.00;101167.54;105847;1255;59718;-76
2023/12/10 05:58:17;;;;;;;39.80;20.10;;;;;;;0.33;100.00;101167.17;105837;1253;59598;-76
2023/12/10 06:00:44;;;;;;;37.30;20.70;;;;;;;0.35;100.00;101173.68;105866;1255;71051;-78
2023/12/10 06:03:11;;;;;;;36.10;21.10;;;;;;;0.33;100.00;101175.94;105827;1256;64017;-77
2023/12/10 06:05:40;;;;;;;33.80;18.90;;;;;;;0.33;100.00;101178.69;105772;1254;71366;-76
2023/12/10 06:08:09;;;;;;;39.50;20.10;;;;;;;0.35;100.00;101181.77;105779;1258;61045;-78
2023/12/10 06:10:36;;;;;;;31.00;18.80;;;;;;;0.32;100.00;101182.84;105856;1257;60511;-77
2023/12/10 06:13:03;;;;;;;35.70;18.60;;;;;;;0.27;100.00;101184.23;105943;1253;71949;-77
2023/12/10 06:15:31;;;;;;;33.30;17.80;;;;;;;0.25;100.00;101191.16;106090;1258;64144;-78
2023/12/10 06:17:59;;;;;;;33.90;17.00;;;;;;;0.24;100.00;101194.77;105827;1257;72710;-77
2023/12/10 06:20:26;;;;;;;33.40;18.50;;;;;;;0.23;100.00;101200.63;105716;1256;61216;-77
2023/12/10 06:22:53;;;;;;;35.20;18.10;;;;;;;0.25;100.00;101201.63;105780;1254;60277;-79
2023/12/10 06:25:20;;;;;;;35.30;19.10;;;;;;;0.23;100.00;101198.21;105794;1256;73088;-78
2023/12/10 06:27:47;;;;;;;35.70;19.80;;;;;;;0.19;100.00;101197.38;105729;1258;63680;-77
2023/12/10 06:30:14;;;;;;;36.20;18.80;;;;;;;0.19;100.00;101197.04;105760;1257;72534;-78
2023/12/10 06:32:41;;;;;;;33.60;19.50;;;;;;;0.23;100.00;101195.63;105671;1257;61187;-77
2023/12/10 06:35:09;;;;;;;36.50;20.50;;;;;;;0.23;100.00;101196.83;105828;1255;60137;-77
2023/12/10 06:37:37;;;;;;;43.30;20.30;;;;;;;0.24;100.00;101192.88;105793;1257;72871;-78
2023/12/10 06:40:05;;;;;;;35.90;20.30;;;;;;;0.29;100.00;101192.30;105641;1257;62534;-77
2023/12/10 06:42:34;;;;;;;41.20;22.00;;;;;;;0.35;100.00;101196.04;105758;1256;72658;-77
2023/12/10 06:45:01;;;;;;;40.30;19.60;;;;;;;0.35;100.00;101198.98;105753;1258;61212;-76
2023/12/10 06:47:28;;;;;;;40.70;21.40;;;;;;;0.34;100.00;101205.69;105832;1254;60482;-76
2023/12/10 06:49:56;;;;;;;36.50;20.10;;;;;;;0.32;100.00;101206.55;105834;1256;73061;-78
2023/12/10 06:52:23;;;;;;;41.60;22.60;;;;;;;0.32;100.00;101207.42;105674;1259;63839;-77
2023/12/10 06:54:51;;;;;;;35.30;19.10;;;;;;;0.28;100.00;101204.70;106018;1258;72606;-78
2023/12/10 06:57:18;;;;;;;39.10;21.00;;;;;;;0.28;100.00;101205.05;105864;1262;60965;-78
2023/12/10 06:59:45;;;;;;;44.60;21.50;;;;;;;0.27;100.00;101206.26;105996;1254;60341;-76
2023/12/10 07:02:13;;;;;;;42.60;20.90;;;;;;;0.29;100.00;101206.42;106673;1254;73022;-78
2023/12/10 07:04:40;;;;;;;40.30;21.80;;;;;;;0.30;100.00;101206.92;105910;1254;61796;-78
2023/12/10 07:07:09;;;;;;;37.90;19.80;;;;;;;0.30;100.00;101211.39;105687;1265;72565;-78
2023/12/10 07:09:36;;;;;;;38.60;21.40;;;;;;;0.31;100.00;101217.23;105789;1258;60988;-79
2023/12/10 07:12:02;;;;;;;38.00;21.20;;;;;;;0.32;100.00;101226.00;105821;1255;60207;-77
2023/12/10 07:14:30;;;;;;;40.50;21.50;;;;;;;0.27;100.00;101230.33;105680;1252;73131;-78
2023/12/10 07:16:57;;;;;;;40.10;24.20;;;;;;;0.25;100.00;101234.81;105823;1257;63922;-80
2023/12/10 07:19:24;;;;;;;43.90;24.00;;;;;;;0.21;100.00;101234.33;105771;1257;72417;-78
2023/12/10 07:21:52;;;;;;;40.90;23.10;;;;;;;0.18;100.00;101240.03;105720;1257;61120;-77
2023/12/10 07:24:23;;;;;;;40.70;23.30;;;;;;;0.17;100.00;101244.67;105767;1259;60342;-79
2023/12/10 07:26:50;;;;;;;39.90;21.70;;;;;;;0.18;100.00;101247.27;105689;1258;73197;-80
2023/12/10 07:29:17;;;;;;;41.90;22.10;;;;;;;0.14;100.00;101243.83;105849;1257;65652;-79
2023/12/10 07:31:44;;;;;;;45.00;24.80;;;;;;;0.14;100.00;101250.36;105821;1257;72794;-77
2023/12/10 07:34:11;;;;;;;36.40;20.90;;;;;;;0.17;100.00;101252.76;105733;1262;61976;-78
2023/12/10 07:36:39;;;;;;;38.70;21.40;;;;;;;0.17;100.00;101258.77;105770;1253;60141;-77
2023/12/10 07:39:09;;;;;;;40.30;22.20;;;;;;;0.13;100.00;101259.32;106022;1256;73074;-78
2023/12/10 07:41:36;;;;;;;30.80;18.90;;;;;;;0.13;100.00;101261.55;105765;1257;63858;-75
2023/12/10 07:44:04;;;;;;;39.00;21.00;;;;;;;0.14;100.00;101262.56;105777;1258;72707;-78
2023/12/10 07:46:31;;;;;;;36.00;21.60;;;;;;;0.13;100.00;101266.36;105791;1255;61206;-77
2023/12/10 07:48:58;;;;;;;42.50;23.70;;;;;;;0.14;100.00;101269.80;105926;1257;60139;-77
2023/12/10 07:51:25;;;;;;;49.60;25.90;;;;;;;0.14;100.00;101268.06;106397;1255;73195;-78
2023/12/10 07:53:52;;;;;;;45.70;25.60;;;;;;;0.15;100.00;101272.70;106411;1257;64028;-79
2023/12/10 07:56:19;;;;;;;46.00;25.30;;;;;;;0.17;100.00;101274.07;106012;1254;72671;-79
2023/12/10 07:58:47;;;;;;;42.50;25.00;;;;;;;0.19;100.00;101274.41;105860;1258;61159;-78
2023/12/10 08:01:14;;;;;;;46.20;23.20;;;;;;;0.23;100.00;101278.67;105873;1253;60225;-79
2023/12/10 08:03:41;;;;;;;45.90;24.50;;;;;;;0.26;100.00;101274.20;105892;1257;73144;-79
2023/12/10 08:06:11;;;;;;;42.80;24.00;;;;;;;0.29;100.00;101271.75;105928;1259;63578;-77
2023/12/10 08:08:38;;;;;;;41.50;24.20;;;;;;;0.30;100.00;101273.14;105816;1257;72680;-78
2023/12/10 08:11:06;;;;;;;40.60;22.90;;;;;;;0.28;100.00;101271.08;105939;1257;61260;-79
2023/12/10 08:13:33;;;;;;;43.50;22.10;;;;;;;0.26;100.00;101270.40;105872;1256;59629;-79
2023/12/10 08:15:59;;;;;;;34.00;20.70;;;;;;;0.25;100.00;101270.75;105849;1258;73037;-78
2023/12/10 08:18:27;;;;;;;40.30;21.30;;;;;;;0.22;100.00;101270.26;105733;1257;63866;-78
2023/12/10 08:20:55;;;;;;;38.40;20.50;;;;;;;0.15;100.00;101264.64;105807;1258;71391;-77
2023/12/10 08:23:25;;;;;;;34.80;21.10;;;;;;;0.13;100.00;101261.55;105849;1260;59647;-78
2023/12/10 08:25:52;;;;;;;45.10;23.40;;;;;;;0.14;100.00;101265.15;107539;1252;59677;-79
2023/12/10 08:28:19;;;;;;;40.90;22.10;;;;;;;0.15;100.00;101260.67;108855;1253;71628;-77
2023/12/10 08:30:47;;;;;;;37.40;21.50;;;;;;;0.17;100.00;101266.85;106277;1258;62441;-78
2023/12/10 08:33:13;;;;;;;37.50;20.90;;;;;;;0.17;100.00;101266.86;105835;1258;72640;-78
2023/12/10 08:35:41;;;;;;;38.10;23.10;;;;;;;0.17;100.00;101263.59;105781;1257;61014;-79
2023/12/10 08:38:08;;;;;;;36.70;21.90;;;;;;;0.16;100.00;101265.14;106073;1254;59513;-76
2023/12/10 08:40:35;;;;;;;34.10;21.00;;;;;;;0.13;100.00;101264.98;106163;1257;73073;-77
2023/12/10 08:43:03;;;;;;;31.80;20.20;;;;;;;0.06;100.00;101258.15;105886;1257;63394;-80
2023/12/10 08:45:30;;;;;;;40.20;24.20;;;;;;;0.01;100.00;101260.27;105849;1254;72661;-78
2023/12/10 08:47:59;;;;;;;37.60;20.80;;;;;;;0.03;100.00;101259.73;105801;1259;61004;-78
2023/12/10 08:50:26;;;;;;;36.10;22.50;;;;;;;0.07;100.00;101259.02;105767;1266;59630;-80
2023/12/10 08:52:53;;;;;;;34.70;20.00;;;;;;;0.07;100.00;101257.63;105723;1266;73186;-77
2023/12/10 08:55:20;;;;;;;36.80;23.20;;;;;;;0.06;100.00;101249.73;105733;1256;63835;-78
2023/12/10 08:57:48;;;;;;;41.10;20.80;;;;;;;0.06;100.00;101252.14;105767;1266;72495;-77
2023/12/10 09:00:16;;;;;;;37.20;20.90;;;;;;;0.10;100.00;101251.09;105708;1257;61315;-79
2023/12/10 09:02:43;;;;;;;33.20;20.70;;;;;;;0.14;100.00;101252.60;105820;1254;60352;-78
2023/12/10 09:05:10;;;;;;;37.20;19.50;;;;;;;0.17;100.00;101264.10;105772;1257;73003;-79
2023/12/10 09:07:38;;;;;;;41.80;21.10;;;;;;;0.18;100.00;101262.55;105777;1259;62766;-79
2023/12/10 09:10:07;;;;;;;33.80;19.80;;;;;;;0.18;100.00;101261.52;105805;1254;71471;-81
2023/12/10 09:12:39;;;;;;;28.00;17.10;;;;;;;0.15;100.00;101258.27;105696;1253;61240;-79
2023/12/10 09:15:08;;;;;;;35.10;19.20;;;;;;;0.10;100.00;101255.73;105829;1253;60245;-79
2023/12/10 09:17:35;;;;;;;32.10;19.20;;;;;;;0.05;100.00;101258.50;105769;1254;73052;-78
2023/12/10 09:20:04;;;;;;;37.60;20.40;;;;;;;0.03;100.00;101255.42;105873;1255;62495;-79
2023/12/10 09:22:31;;;;;;;43.30;23.60;;;;;;;0.06;100.00;101256.61;105780;1258;72769;-77
2023/12/10 09:24:59;;;;;;;35.60;20.30;;;;;;;0.07;100.00;101258.15;105927;1257;61003;-79
2023/12/10 09:27:27;;;;;;;35.30;17.70;;;;;;;0.06;100.00;101257.47;106787;1254;60300;-78
2023/12/10 09:29:54;;;;;;;40.40;18.80;;;;;;;0.06;100.00;101257.46;107125;1254;71690;-78
2023/12/10 09:32:23;;;;;;;34.70;19.70;;;;;;;0.08;100.00;101255.73;105945;1258;62479;-78
2023/12/10 09:34:50;;;;;;;31.90;19.50;;;;;;;0.07;100.00;101262.10;105745;1257;72761;-79
2023/12/10 09:37:20;;;;;;;37.70;19.40;;;;;;;0.06;100.00;101259.02;105750;1257;61071;-78
2023/12/10 09:39:49;;;;;;;37.40;19.40;;;;;;;0.04;100.00;101255.42;105801;1254;60309;-77
2023/12/10 09:42:16;;;;;;;37.00;21.20;;;;;;;0.03;100.00;101253.02;105752;1254;73043;-79
2023/12/10 09:44:43;;;;;;;28.10;17.70;;;;;;;0.05;100.00;101258.34;105633;1257;63877;-79
2023/12/10 09:47:10;;;;;;;40.40;22.10;;;;;;;0.06;100.00;101252.98;105769;1257;72742;-78
2023/12/10 09:49:38;;;;;;;42.50;21.90;;;;;;;0.06;100.00;101251.27;105776;1257;61031;-78
2023/12/10 09:52:06;;;;;;;31.00;19.50;;;;;;;0.11;100.00;101257.09;105770;1257;60932;-80
2023/12/10 09:54:33;;;;;;;40.20;24.20;;;;;;;0.15;100.00;101253.98;105673;1257;72899;-79
2023/12/10 09:57:01;;;;;;;35.90;20.50;;;;;;;0.20;100.00;101251.70;105746;1256;64420;-79
2023/12/10 09:59:28;;;;;;;35.50;21.30;;;;;;;0.21;100.00;101250.65;105768;1254;72468;-78
2023/12/10 10:01:55;;;;;;;36.20;22.10;;;;;;;0.18;100.00;101244.50;105705;1257;61218;-79
2023/12/10 10:04:23;;;;;;;41.80;20.80;;;;;;;0.19;100.00;101243.45;105555;1260;60476;-80
2023/12/10 10:06:55;;;;;;;36.40;21.30;;;;;;;0.21;100.00;101248.43;105723;1257;73722;-78
2023/12/10 10:09:23;;;;;;;41.00;23.80;;;;;;;0.20;100.00;101247.74;105775;1257;63895;-79
2023/12/10 10:12:02;;;;;;;38.00;23.50;;;;;;;0.19;100.00;101252.21;105705;1257;71407;-80
2023/12/10 10:14:29;;;;;;;43.00;23.00;;;;;;;0.20;100.00;101251.70;105610;1253;61221;-78
2023/12/10 10:16:57;;;;;;;36.40;21.90;;;;;;;0.24;100.00;101257.86;106321;1257;59604;-78
2023/12/10 10:19:25;;;;;;;37.80;22.00;;;;;;;0.30;100.00;101257.83;106100;1257;72922;-79
2023/12/10 10:21:54;;;;;;;36.30;20.90;;;;;;;0.33;100.00;101262.09;105812;1257;64889;-79
2023/12/10 10:24:25;;;;;;;37.90;19.60;;;;;;;0.32;100.00;101257.11;105688;1254;72689;-80
2023/12/10 10:26:54;;;;;;;38.50;19.90;;;;;;;0.29;100.00;101252.50;105704;1257;61282;-77
2023/12/10 10:29:23;;;;;;;38.30;18.50;;;;;;;0.27;100.00;101250.80;105747;1257;60524;-78
2023/12/10 10:31:50;;;;;;;36.30;20.30;;;;;;;0.25;100.00;101248.06;105821;1254;72433;-79
2023/12/10 10:34:17;;;;;;;38.10;22.60;;;;;;;0.25;100.00;101246.00;105753;1255;63926;-79
2023/12/10 10:36:45;;;;;;;43.30;22.80;;;;;;;0.28;100.00;101247.17;105694;1254;72822;-78
2023/12/10 10:39:12;;;;;;;40.50;23.20;;;;;;;0.30;100.00;101248.72;105722;1254;60647;-78
2023/12/10 10:41:39;;;;;;;37.30;22.60;;;;;;;0.30;100.00;101251.98;105705;1254;60896;-78
2023/12/10 10:44:06;;;;;;;38.40;22.70;;;;;;;0.33;100.00;101254.19;105721;1257;72319;-80
2023/12/10 10:46:33;;;;;;;37.00;21.40;;;;;;;0.34;100.00;101251.94;105618;1256;63741;-78
2023/12/10 10:49:00;;;;;;;39.20;20.80;;;;;;;0.36;100.00;101248.33;105579;1260;70868;-79
2023/12/10 10:51:29;;;;;;;36.70;20.60;;;;;;;0.33;100.00;101250.92;105764;1258;61155;-79
2023/12/10 10:53:58;;;;;;;37.60;22.10;;;;;;;0.29;100.00;101245.78;105778;1257;60569;-79
2023/12/10 10:56:25;;;;;;;36.50;21.40;;;;;;;0.25;100.00;101243.76;105703;1254;75293;-79
2023/12/10 10:58:52;;;;;;;39.50;20.50;;;;;;;0.19;100.00;101244.14;105795;1257;64973;-79
2023/12/10 11:01:39;;;;;;;33.90;19.50;;;;;;;0.15;100.00;101240.91;105663;1254;72577;-78
2023/12/10 11:04:08;;;;;;;39.90;20.80;;;;;;;0.11;100.00;101236.64;105837;1254;60998;-80
2023/12/10 11:06:36;;;;;;;36.80;20.50;;;;;;;0.06;100.00;101236.49;106571;1253;60438;-79